createdAt,value
2018-09-11T00:01:42.884Z,99.90
2018-09-11T00:04:10.699Z,99.90
2018-09-11T00:06:38.312Z,99.90
2018-09-11T00:09:10.080Z,99.90
2018-09-11T00:11:37.889Z,99.90
2018-09-11T00:14:05.517Z,99.90
2018-09-11T00:16:33.151Z,99.90
2018-09-11T00:19:00.827Z,99.90
2018-09-11T00:21:28.454Z,99.90
2018-09-11T00:23:56.126Z,99.90
2018-09-11T00:26:23.841Z,99.90
2018-09-11T00:28:51.644Z,99.90
2018-09-11T00:31:19.365Z,99.90
2018-09-11T00:33:47.027Z,99.90
2018-09-11T00:36:14.637Z,99.90
2018-09-11T00:38:42.250Z,99.90
2018-09-11T00:41:09.918Z,99.90
2018-09-11T00:43:37.559Z,99.90
2018-09-11T00:46:05.244Z,99.90
2018-09-11T00:48:32.900Z,99.90
2018-09-11T00:51:00.632Z,99.90
2018-09-11T00:53:28.363Z,99.90
2018-09-11T00:55:56.069Z,99.90
2018-09-11T00:58:23.721Z,99.90
2018-09-11T01:00:51.385Z,99.90
2018-09-11T01:03:19.011Z,99.90
2018-09-11T01:05:46.719Z,99.90
2018-09-11T01:08:14.387Z,99.90
2018-09-11T01:10:42.044Z,99.90
2018-09-11T01:13:10.004Z,99.90
2018-09-11T01:15:37.721Z,99.90
2018-09-11T01:23:00.584Z,99.90
2018-09-11T01:25:28.312Z,99.90
2018-09-11T01:27:56.000Z,99.90
2018-09-11T01:30:23.816Z,99.90
2018-09-11T01:32:51.933Z,99.90
2018-09-11T01:35:20.174Z,99.90
2018-09-11T01:37:47.855Z,99.90
2018-09-11T01:40:15.547Z,99.90
2018-09-11T01:42:43.202Z,99.90
2018-09-11T01:45:10.831Z,99.90
2018-09-11T01:47:38.509Z,99.90
2018-09-11T01:50:06.230Z,99.90
2018-09-11T01:52:33.872Z,99.90
2018-09-11T01:55:01.529Z,99.90
2018-09-11T01:57:29.170Z,99.90
2018-09-11T01:59:56.936Z,99.90
2018-09-11T02:02:24.622Z,99.90
2018-09-11T02:04:52.824Z,99.90
2018-09-11T02:07:20.485Z,99.90
2018-09-11T02:09:48.127Z,99.90
2018-09-11T02:12:15.882Z,99.90
2018-09-11T02:14:43.860Z,99.90
2018-09-11T02:17:11.667Z,99.90
2018-09-11T02:19:39.347Z,99.90
2018-09-11T02:22:07.319Z,99.90
2018-09-11T02:24:35.035Z,99.90
2018-09-11T02:27:02.712Z,99.90
2018-09-11T02:29:30.322Z,99.90
2018-09-11T02:34:25.636Z,99.90
2018-09-11T02:41:48.321Z,99.90
2018-09-11T02:44:16.019Z,99.90
2018-09-11T02:49:11.377Z,99.90
2018-09-11T02:51:39.079Z,99.90
2018-09-11T02:54:06.708Z,99.90
2018-09-11T02:56:34.460Z,99.90
2018-09-11T02:59:02.227Z,99.90
2018-09-11T03:01:29.916Z,99.90
2018-09-11T03:03:57.593Z,99.90
2018-09-11T03:06:25.219Z,99.90
2018-09-11T03:08:52.871Z,99.90
2018-09-11T03:11:20.504Z,99.90
2018-09-11T03:13:50.071Z,99.90
2018-09-11T03:16:17.808Z,99.90
2018-09-11T03:18:45.477Z,99.90
2018-09-11T03:21:13.222Z,99.90
2018-09-11T03:23:40.957Z,99.90
2018-09-11T03:26:08.585Z,99.90
2018-09-11T03:28:36.275Z,99.90
2018-09-11T03:31:03.927Z,99.90
2018-09-11T03:33:31.582Z,99.90
2018-09-11T03:35:59.768Z,99.90
2018-09-11T03:38:27.488Z,99.90
2018-09-11T03:40:55.229Z,99.90
2018-09-11T03:43:22.879Z,99.90
2018-09-11T03:45:50.495Z,99.90
2018-09-11T03:48:20.418Z,99.90
2018-09-11T03:50:49.316Z,99.90
2018-09-11T03:53:17.404Z,99.90
2018-09-11T04:05:35.892Z,99.90
2018-09-11T04:08:03.500Z,99.90
2018-09-11T04:10:31.114Z,99.90
2018-09-11T04:12:58.812Z,99.90
2018-09-11T04:15:26.498Z,99.90
2018-09-11T04:17:55.946Z,99.90
2018-09-11T04:20:23.662Z,99.90
2018-09-11T04:22:51.438Z,99.90
2018-09-11T04:25:19.163Z,99.90
2018-09-11T04:27:46.917Z,99.90
2018-09-11T04:30:14.557Z,99.90
2018-09-11T04:32:42.458Z,99.90
2018-09-11T04:35:10.202Z,99.90
2018-09-11T04:37:37.857Z,99.90
2018-09-11T04:40:05.619Z,99.90
2018-09-11T04:42:33.516Z,99.90
2018-09-11T04:45:01.300Z,99.90
2018-09-11T04:47:28.952Z,99.90
2018-09-11T04:49:56.684Z,99.90
2018-09-11T04:54:52.052Z,99.90
2018-09-11T04:57:19.917Z,99.90
2018-09-11T04:59:47.729Z,99.90
2018-09-11T05:02:15.728Z,99.90
2018-09-11T05:04:43.425Z,99.90
2018-09-11T05:07:11.053Z,99.90
2018-09-11T05:09:38.705Z,99.90
2018-09-11T05:12:06.500Z,99.90
2018-09-11T05:14:34.200Z,99.90
2018-09-11T05:17:01.917Z,99.90
2018-09-11T05:19:29.566Z,99.90
2018-09-11T05:21:57.223Z,99.90
2018-09-11T05:24:24.859Z,99.90
2018-09-11T05:26:52.476Z,99.90
2018-09-11T05:31:47.802Z,99.90
2018-09-11T05:34:15.493Z,99.90
2018-09-11T05:36:43.147Z,99.90
2018-09-11T05:39:10.869Z,99.90
2018-09-11T05:41:38.451Z,99.90
2018-09-11T05:46:34.375Z,99.90
2018-09-11T05:49:02.043Z,99.90
2018-09-11T05:58:52.546Z,99.90
2018-09-11T06:01:20.218Z,99.90
2018-09-11T06:03:47.916Z,99.90
2018-09-11T06:06:15.700Z,99.90
2018-09-11T06:08:43.396Z,99.90
2018-09-11T06:11:11.045Z,99.90
2018-09-11T06:13:38.846Z,99.90
2018-09-11T06:16:06.562Z,99.90
2018-09-11T06:18:34.235Z,99.90
2018-09-11T06:21:01.913Z,99.90
2018-09-11T06:23:29.534Z,99.90
2018-09-11T06:25:57.171Z,99.90
2018-09-11T06:30:52.485Z,99.90
2018-09-11T06:33:20.179Z,99.90
2018-09-11T06:35:47.804Z,99.90
2018-09-11T06:38:16.164Z,99.90
2018-09-11T06:40:43.800Z,99.90
2018-09-11T06:43:11.585Z,99.90
2018-09-11T06:45:39.354Z,99.90
2018-09-11T06:48:07.011Z,99.90
2018-09-11T06:50:34.701Z,99.90
2018-09-11T06:55:30.110Z,99.90
2018-09-11T06:57:57.837Z,99.90
2018-09-11T07:00:25.655Z,99.90
2018-09-11T07:02:53.599Z,99.90
2018-09-11T07:05:21.389Z,99.90
2018-09-11T07:07:49.363Z,99.90
2018-09-11T07:10:17.207Z,99.90
2018-09-11T07:12:44.871Z,99.90
2018-09-11T07:15:12.822Z,99.90
2018-09-11T07:17:40.495Z,99.90
2018-09-11T07:20:09.086Z,99.90
2018-09-11T07:22:36.620Z,99.90
2018-09-11T07:25:04.508Z,99.90
2018-09-11T07:30:01.134Z,99.90
2018-09-11T07:32:28.835Z,99.90
2018-09-11T07:34:56.494Z,99.90
2018-09-11T07:37:24.151Z,99.90
2018-09-11T07:39:51.784Z,99.90
2018-09-11T07:47:14.700Z,99.90
2018-09-11T07:49:42.356Z,99.90
2018-09-11T07:52:10.019Z,99.90
2018-09-11T07:54:37.623Z,99.90
2018-09-11T07:57:05.284Z,99.90
2018-09-11T07:59:32.919Z,99.90
2018-09-11T08:02:00.575Z,99.90
2018-09-11T08:06:55.737Z,99.90
2018-09-11T08:09:23.406Z,99.90
2018-09-11T08:11:51.138Z,99.90
2018-09-11T08:14:18.713Z,99.90
2018-09-11T08:16:46.400Z,99.90
2018-09-11T08:19:14.007Z,99.90
2018-09-11T08:21:41.656Z,99.90
2018-09-11T08:24:09.342Z,99.90
2018-09-11T08:26:36.996Z,99.90
2018-09-11T08:29:04.711Z,99.90
2018-09-11T08:31:32.361Z,99.90
2018-09-11T08:33:59.996Z,99.90
2018-09-11T08:36:27.644Z,99.90
2018-09-11T08:38:55.332Z,99.90
2018-09-11T08:41:23.001Z,99.90
2018-09-11T08:46:18.256Z,99.90
2018-09-11T08:48:45.960Z,99.90
2018-09-11T08:51:13.600Z,99.90
2018-09-11T08:56:09.893Z,99.90
2018-09-11T08:58:37.620Z,99.90
2018-09-11T09:03:33.072Z,99.90
2018-09-11T09:06:00.685Z,99.90
2018-09-11T09:08:28.301Z,99.90
2018-09-11T09:10:55.976Z,99.90
2018-09-11T09:13:23.632Z,99.90
2018-09-11T09:15:51.277Z,99.90
2018-09-11T09:18:18.950Z,99.90
2018-09-11T09:20:46.860Z,99.90
2018-09-11T09:23:14.524Z,99.90
2018-09-11T09:25:42.201Z,99.90
2018-09-11T09:28:09.893Z,99.90
2018-09-11T09:35:32.804Z,99.90
2018-09-11T09:38:00.444Z,99.90
2018-09-11T09:40:28.047Z,99.70
2018-09-11T09:42:55.741Z,99.60
2018-09-11T09:47:50.961Z,99.40
2018-09-11T09:50:18.581Z,99.10
2018-09-11T09:52:46.199Z,99.10
2018-09-11T09:55:15.850Z,98.70
2018-09-11T09:57:43.511Z,98.60
2018-09-11T10:00:11.200Z,98.30
2018-09-11T10:02:38.819Z,98.20
2018-09-11T10:05:06.561Z,98.10
2018-09-11T10:07:34.233Z,97.70
2018-09-11T10:10:01.903Z,97.70
2018-09-11T10:12:29.528Z,97.40
2018-09-11T10:14:57.168Z,97.40
2018-09-11T10:17:24.884Z,97.10
2018-09-11T10:19:52.467Z,96.80
2018-09-11T10:22:20.124Z,96.50
2018-09-11T10:24:47.767Z,96.60
2018-09-11T10:27:15.491Z,96.10
2018-09-11T10:29:43.116Z,96.00
2018-09-11T10:34:38.333Z,95.80
2018-09-11T10:37:05.973Z,95.90
2018-09-11T10:39:33.708Z,95.60
2018-09-11T10:42:01.315Z,94.90
2018-09-11T10:44:28.928Z,94.40
2018-09-11T10:46:56.576Z,94.30
2018-09-11T10:54:19.371Z,93.90
2018-09-11T10:59:14.567Z,93.30
2018-09-11T11:01:42.251Z,93.30
2018-09-11T11:04:09.931Z,93.20
2018-09-11T11:06:37.548Z,92.60
2018-09-11T11:09:07.737Z,91.90
2018-09-11T11:11:35.426Z,91.80
2018-09-11T11:14:03.063Z,91.80
2018-09-11T11:21:25.834Z,91.70
2018-09-11T11:23:53.582Z,91.40
2018-09-11T11:26:21.203Z,90.20
2018-09-11T11:28:48.881Z,90.60
2018-09-11T11:31:16.508Z,90.80
2018-09-11T11:33:44.168Z,90.80
2018-09-11T11:36:11.919Z,90.50
2018-09-11T11:38:39.524Z,90.40
2018-09-11T11:41:07.185Z,89.20
2018-09-11T11:43:34.880Z,89.30
2018-09-11T11:46:02.543Z,87.90
2018-09-11T11:48:30.166Z,87.80
2018-09-11T11:50:57.832Z,87.40
2018-09-11T11:53:25.509Z,86.90
2018-09-11T11:55:53.144Z,87.50
2018-09-11T11:58:20.780Z,87.70
2018-09-11T12:00:48.474Z,87.20
2018-09-11T12:03:16.113Z,85.70
2018-09-11T12:05:43.774Z,82.80
2018-09-11T12:08:11.448Z,81.70
2018-09-11T12:10:39.111Z,80.90
2018-09-11T12:13:06.843Z,80.60
2018-09-11T12:15:34.494Z,81.30
2018-09-11T12:18:02.264Z,81.00
2018-09-11T12:20:30.232Z,80.60
2018-09-11T12:22:57.860Z,79.90
2018-09-11T12:25:25.549Z,79.20
2018-09-11T12:30:20.818Z,80.90
2018-09-11T12:32:48.437Z,79.20
2018-09-11T12:35:16.102Z,78.90
2018-09-11T12:37:43.729Z,78.90
2018-09-11T12:40:11.423Z,77.30
2018-09-11T12:42:39.752Z,78.00
2018-09-11T12:45:07.613Z,77.40
2018-09-11T12:47:36.988Z,76.30
2018-09-11T12:52:32.121Z,75.60
2018-09-11T12:54:59.739Z,74.70
2018-09-11T12:57:27.348Z,72.30
2018-09-11T12:59:55.011Z,70.80
2018-09-11T13:02:22.705Z,69.30
2018-09-11T13:04:50.354Z,69.40
2018-09-11T13:07:18.025Z,65.80
2018-09-11T13:09:46.488Z,62.90
2018-09-11T13:12:14.220Z,63.10
2018-09-11T13:14:41.861Z,63.00
2018-09-11T13:17:09.533Z,63.00
2018-09-11T13:19:37.168Z,62.80
2018-09-11T13:22:04.898Z,59.90
2018-09-11T13:24:32.608Z,58.60
2018-09-11T13:27:00.259Z,57.50
2018-09-11T13:29:27.927Z,57.30
2018-09-11T13:31:55.581Z,56.30
2018-09-11T13:34:23.216Z,54.00
2018-09-11T13:36:50.890Z,53.00
2018-09-11T13:39:18.617Z,53.90
2018-09-11T13:41:46.279Z,52.30
2018-09-11T13:44:13.944Z,52.90
2018-09-11T13:46:42.493Z,51.00
2018-09-11T13:49:10.306Z,52.10
2018-09-11T13:51:37.992Z,52.50
2018-09-11T13:54:05.669Z,51.70
2018-09-11T13:56:33.350Z,52.20
2018-09-11T13:59:00.975Z,52.20
2018-09-11T14:03:56.277Z,51.20
2018-09-11T14:11:19.082Z,50.80
2018-09-11T14:13:46.688Z,50.20
2018-09-11T14:16:14.356Z,49.50
2018-09-11T14:18:41.977Z,48.50
2018-09-11T14:21:09.654Z,48.50
2018-09-11T14:23:37.311Z,47.20
2018-09-11T14:26:05.026Z,48.60
2018-09-11T14:28:32.752Z,47.70
2018-09-11T14:31:00.412Z,48.10
2018-09-11T14:33:28.105Z,48.00
2018-09-11T14:35:55.741Z,49.10
2018-09-11T14:38:23.532Z,48.90
2018-09-11T14:40:51.330Z,47.80
2018-09-11T14:45:46.591Z,46.10
2018-09-11T14:48:14.240Z,45.70
2018-09-11T14:50:41.908Z,44.80
2018-09-11T14:53:09.603Z,44.20
2018-09-11T14:55:37.267Z,45.00
2018-09-11T14:58:05.076Z,43.40
2018-09-11T15:00:32.722Z,42.90
2018-09-11T15:03:00.395Z,42.30
2018-09-11T15:10:23.169Z,42.20
2018-09-11T15:12:50.828Z,43.50
2018-09-11T15:15:18.563Z,44.00
2018-09-11T15:17:47.896Z,43.90
2018-09-11T15:20:15.544Z,42.90
2018-09-11T15:22:43.207Z,41.40
2018-09-11T15:27:38.424Z,40.10
2018-09-11T15:30:06.100Z,39.30
2018-09-11T15:32:33.740Z,39.00
2018-09-11T15:35:01.400Z,39.20
2018-09-11T15:37:29.051Z,40.50
2018-09-11T15:39:56.784Z,41.10
2018-09-11T15:42:24.432Z,40.90
2018-09-11T15:47:19.672Z,41.00
2018-09-11T15:49:47.363Z,41.10
2018-09-11T15:52:15.021Z,41.50
2018-09-11T15:54:42.654Z,41.30
2018-09-11T15:57:10.397Z,40.80
2018-09-11T15:59:38.041Z,41.80
2018-09-11T16:02:05.865Z,42.10
2018-09-11T16:04:33.623Z,42.00
2018-09-11T16:07:01.310Z,42.10
2018-09-11T16:11:56.532Z,42.70
2018-09-11T16:14:24.173Z,43.00
2018-09-11T16:16:51.813Z,43.30
2018-09-11T16:19:19.461Z,43.90
2018-09-11T16:21:47.141Z,45.20
2018-09-11T16:24:14.801Z,45.70
2018-09-11T16:26:42.456Z,46.40
2018-09-11T16:29:10.079Z,48.00
2018-09-11T16:31:37.744Z,49.10
2018-09-11T16:34:05.551Z,50.00
2018-09-11T16:39:00.742Z,51.20
2018-09-11T16:46:24.995Z,53.40
2018-09-11T16:48:52.624Z,54.00
2018-09-11T16:58:42.999Z,55.10
2018-09-11T17:01:10.699Z,55.60
2018-09-11T17:06:06.033Z,56.30
2018-09-11T17:08:33.725Z,56.80
2018-09-11T17:11:01.386Z,57.40
2018-09-11T17:13:29.024Z,57.80
2018-09-11T17:15:56.796Z,58.20
2018-09-11T17:18:24.416Z,58.80
2018-09-11T17:20:52.125Z,58.70
2018-09-11T17:23:19.764Z,59.40
2018-09-11T17:25:47.414Z,59.50
2018-09-11T17:28:15.125Z,59.80
2018-09-11T17:30:42.868Z,60.10
2018-09-11T17:33:10.490Z,60.60
2018-09-11T17:35:38.184Z,61.20
2018-09-11T17:38:05.806Z,61.60
2018-09-11T17:40:33.428Z,62.20
2018-09-11T17:43:01.222Z,62.60
2018-09-11T17:45:28.902Z,62.90
2018-09-11T17:47:56.568Z,63.40
2018-09-11T17:52:51.808Z,64.10
2018-09-11T17:55:19.600Z,64.50
2018-09-11T17:57:47.244Z,65.00
2018-09-11T18:00:14.917Z,66.00
2018-09-11T18:02:42.676Z,66.30
2018-09-11T18:05:10.482Z,66.90
2018-09-11T18:07:38.258Z,67.20
2018-09-11T18:12:33.523Z,68.60
2018-09-11T18:15:01.297Z,69.00
2018-09-11T18:17:29.013Z,69.40
2018-09-11T18:19:56.661Z,69.50
2018-09-11T18:22:24.305Z,70.00
2018-09-11T18:24:52.143Z,70.50
2018-09-11T18:27:19.869Z,71.10
2018-09-11T18:29:47.493Z,71.50
2018-09-11T18:32:15.147Z,72.00
2018-09-11T18:37:10.473Z,72.90
2018-09-11T18:39:38.189Z,73.50
2018-09-11T18:42:05.929Z,73.90
2018-09-11T18:44:33.621Z,74.30
2018-09-11T18:47:01.193Z,74.60
2018-09-11T18:49:28.937Z,75.10
2018-09-11T18:54:24.356Z,76.20
2018-09-11T18:56:52.226Z,76.30
2018-09-11T18:59:19.931Z,76.30
2018-09-11T19:01:47.660Z,76.50
2018-09-11T19:04:15.330Z,76.30
2018-09-11T19:06:43.376Z,76.70
2018-09-11T19:09:11.872Z,77.10
2018-09-11T19:11:41.571Z,77.50
2018-09-11T19:14:09.916Z,77.60
2018-09-11T19:16:37.692Z,78.40
2018-09-11T19:21:33.178Z,79.50
2018-09-11T19:24:00.982Z,79.50
2018-09-11T19:26:28.970Z,80.00
2018-09-11T19:28:56.782Z,79.50
2018-09-11T19:33:53.854Z,79.90
2018-09-11T19:36:21.668Z,80.00
2018-09-11T19:38:49.415Z,80.10
2018-09-11T19:41:17.126Z,80.70
2018-09-11T19:43:44.780Z,82.00
2018-09-11T19:46:12.463Z,82.80
2018-09-11T19:48:40.117Z,82.00
2018-09-11T19:51:07.809Z,81.90
2018-09-11T19:53:35.638Z,82.10
2018-09-11T19:56:03.317Z,82.70
2018-09-11T19:58:31.021Z,84.20
2018-09-11T20:00:58.730Z,85.30
2018-09-11T20:03:26.397Z,84.60
2018-09-11T20:05:54.143Z,84.50
2018-09-11T20:10:49.398Z,85.50
2018-09-11T20:13:17.168Z,85.10
2018-09-11T20:15:45.987Z,85.20
2018-09-11T20:23:08.998Z,86.00
2018-09-11T20:25:36.705Z,86.10
2018-09-11T20:28:04.510Z,86.00
2018-09-11T20:30:32.203Z,86.20
2018-09-11T20:32:59.814Z,86.30
2018-09-11T20:35:27.519Z,86.60
2018-09-11T20:37:55.215Z,86.90
2018-09-11T20:40:22.889Z,87.20
2018-09-11T20:42:50.525Z,87.60
2018-09-11T20:47:45.768Z,88.40
2018-09-11T20:50:13.444Z,89.20
2018-09-11T20:52:41.068Z,89.40
2018-09-11T20:55:08.792Z,89.80
2018-09-11T20:57:36.696Z,89.60
2018-09-11T21:07:27.140Z,90.70
2018-09-11T21:12:22.389Z,91.10
2018-09-11T21:14:50.151Z,91.90
2018-09-11T21:17:17.831Z,91.90
2018-09-11T21:19:45.467Z,92.90
2018-09-11T21:22:13.176Z,93.40
2018-09-11T21:24:40.851Z,93.90
2018-09-11T21:27:08.580Z,94.60
2018-09-11T21:29:36.199Z,95.10
2018-09-11T21:32:03.912Z,95.00
2018-09-11T21:34:31.539Z,95.10
2018-09-11T21:36:59.189Z,94.90
2018-09-11T21:39:26.832Z,95.40
2018-09-11T21:41:54.507Z,95.30
2018-09-11T21:44:22.176Z,95.50
2018-09-11T21:46:49.899Z,95.50
2018-09-11T21:49:17.577Z,95.00
2018-09-11T21:51:45.214Z,94.70
2018-09-11T21:54:12.832Z,94.70
2018-09-11T21:56:40.564Z,94.40
2018-09-11T21:59:08.287Z,94.40
2018-09-11T22:01:42.940Z,94.40
2018-09-11T22:04:10.724Z,94.20
2018-09-11T22:06:38.387Z,94.10
2018-09-11T22:09:07.847Z,94.10
2018-09-11T22:11:35.549Z,94.20
2018-09-11T22:14:03.200Z,94.20
2018-09-11T22:16:30.863Z,94.20
2018-09-11T22:18:58.639Z,94.10
2018-09-11T22:21:26.355Z,94.00
2018-09-11T22:23:54.010Z,94.00
2018-09-11T22:26:21.643Z,94.10
2018-09-11T22:28:49.303Z,94.20
2018-09-11T22:31:16.980Z,94.10
2018-09-11T22:33:44.692Z,94.00
2018-09-11T22:36:12.363Z,94.00
2018-09-11T22:38:41.643Z,94.00
2018-09-11T22:41:09.357Z,94.00
2018-09-11T22:43:39.185Z,94.30
2018-09-11T22:46:06.905Z,94.30
2018-09-11T22:48:34.563Z,94.10
2018-09-11T22:51:02.213Z,94.20
2018-09-11T22:53:29.872Z,94.30
2018-09-11T22:55:58.090Z,94.40
2018-09-11T22:58:25.745Z,94.50
2018-09-11T23:00:53.399Z,94.50
2018-09-11T23:03:21.088Z,94.50
2018-09-11T23:05:48.791Z,94.50
2018-09-11T23:08:16.543Z,94.80
2018-09-11T23:10:44.163Z,95.00
2018-09-11T23:13:11.819Z,95.10
2018-09-11T23:15:39.524Z,95.20
2018-09-11T23:18:07.453Z,95.30
2018-09-11T23:20:35.125Z,95.40
2018-09-11T23:23:02.756Z,95.70
2018-09-11T23:25:30.395Z,95.80
2018-09-11T23:27:58.064Z,95.90
2018-09-11T23:30:25.727Z,96.00
2018-09-11T23:32:53.426Z,96.10
2018-09-11T23:35:21.089Z,96.10
2018-09-11T23:37:48.740Z,96.20
2018-09-11T23:40:16.358Z,96.30
2018-09-11T23:50:07.293Z,96.40
2018-09-11T23:55:02.663Z,96.40
2018-09-11T23:59:57.942Z,96.70
